Airfield :
LOGIN :

Register | Disclaimer

   EN    FR    IT 

 










Legend :    VFR   Marginal VFR   IFR   Intensive IFR   Very Intensive IFR
Visi :
Ceiling :
>= 8 km
>= 3000ft
5 to 8 km
1000 to 3000 ft
1500m to 5 km
500 to 1000 ft
800 to 1500m
200 to 500 ft
< 800m
< 200 ft
Symbols :   Thunderstorms  Fog  Heavy snow  Heavy precipitations  Wind > 20 kt
SIGMETs :     Misc.  Thunderstorms  Icing  Turbulence  Mountain Waves  Volcanic Ashes






- Airport Elevation : 15 ft
- IATA code : BHD


EGAC - George Best Belfast City

CURRENT METAR :
  • 260020Z AUTO 21004KT 6000 FEW041/// 06/05 Q1018

EXPIRED METARs :
  • 252350Z AUTO 20004KT 160V300 4400 BR FEW046/// 04/04 Q1018
  • 252320Z AUTO VRB02KT 7000 SCT038/// 05/05 Q1018
  • 252250Z AUTO 03004KT 340V060 9999 BKN043/// 05/04 Q1018
  • 252220Z AUTO VRB02KT 9999 SCT009/// 06/05 Q1017
  • 252150Z AUTO 15004KT 9999 BKN010/// 06/05 Q1017

TAF AMD TAF EGAC
Valid from the 25 at 20:00 until the 26 at 03:00 UTC


252052Z 2520/2603 25008KT 9999 SCT020
TEMPO 2520/2522 7000 -DZ BKN008
ATIS : +44 02890 935 124



MET'MAP, your aeronautical weather chart ! - Copyright ORBIFLY December 2007 - Disclaimer

ORBIFLY MET'MAP TEAM :

Programming & Development : Alexandra Zaïnal
Concept & original design : Baudouin d'Aumeries
Assistance for programming : Marc-Olivier Méhu
Technical & hardware support : Manuel Goepfert

Contact : metmap@orbifly.com




SOURCES & CREDITS :

   NOAA